Time;durP1;ratioP1;P1;durP2;ratioP2;P2;SDS_P1;SDS_P2;PMS_P1;PMS_P2;Temp;Humidity;BMP_temperature;BMP_pressure;BME280_temperature;BME280_humidity;BME280_pressure;Samples;Min_cycle;Max_cycle;Signal;HPM_P1;HPM_P2
2021/12/14 00:03:07;;;;;;;11.13;6.28;;;;;;;20.69;48.47;101284.47;20468951;28;97468;-83
2021/12/14 00:13:28;;;;;;;9.80;6.30;;;;;;;20.64;48.57;101292.63;20451156;28;100502;-81
2021/12/14 00:33:59;;;;;;;8.38;6.05;;;;;;;20.59;48.45;101297.34;20477153;28;99698;-81
2021/12/14 00:44:01;;;;;;;10.35;6.07;;;;;;;20.54;48.29;101294.09;20485209;28;103254;-81
2021/12/14 00:54:09;;;;;;;7.97;6.20;;;;;;;20.52;48.57;101311.78;20493167;28;101597;-81
2021/12/14 01:04:15;;;;;;;9.05;6.55;;;;;;;20.50;48.46;101310.19;20482968;28;98254;-82
2021/12/14 01:14:26;;;;;;;8.82;6.28;;;;;;;20.48;48.26;101312.91;20460156;28;99184;-81
2021/12/14 01:25:00;;;;;;;8.32;6.30;;;;;;;20.42;48.52;101314.13;20498217;28;98104;-82
2021/12/14 01:34:57;;;;;;;8.80;6.38;;;;;;;20.36;48.08;101313.63;20493336;28;100399;-81
2021/12/14 01:45:18;;;;;;;9.40;6.47;;;;;;;20.34;48.36;101310.28;20491790;28;97972;-81
2021/12/14 01:55:23;;;;;;;9.88;6.88;;;;;;;20.32;48.14;101305.06;20485532;28;101364;-81
2021/12/14 02:05:28;;;;;;;8.70;6.25;;;;;;;20.28;48.22;101296.50;20486246;28;99229;-81
2021/12/14 02:15:35;;;;;;;8.55;6.40;;;;;;;20.29;48.12;101300.00;20482762;28;97643;-82
2021/12/14 02:25:36;;;;;;;9.02;6.38;;;;;;;20.27;48.14;101302.72;20487051;28;97654;-80
2021/12/14 02:35:37;;;;;;;10.52;7.03;;;;;;;20.26;47.87;101308.94;20486610;28;103021;-80
2021/12/14 02:45:37;;;;;;;9.23;6.50;;;;;;;20.27;47.90;101304.50;20485326;28;100249;-80
2021/12/14 02:55:41;;;;;;;10.82;6.90;;;;;;;20.25;47.81;101301.97;20483992;28;99708;-80
2021/12/14 03:05:45;;;;;;;8.70;6.53;;;;;;;20.24;47.93;101299.44;20479695;28;102193;-80
2021/12/14 03:15:55;;;;;;;9.13;6.88;;;;;;;20.23;47.66;101308.28;20487070;28;98635;-82
2021/12/14 03:26:00;;;;;;;8.80;6.40;;;;;;;20.22;47.84;101306.56;20482183;28;97568;-82
2021/12/14 03:36:13;;;;;;;8.85;6.93;;;;;;;20.22;47.91;101301.31;20482930;28;100206;-81
2021/12/14 03:46:13;;;;;;;9.57;6.50;;;;;;;20.20;47.91;101300.53;20481598;28;98621;-82
2021/12/14 03:56:14;;;;;;;9.05;6.50;;;;;;;20.18;47.73;101292.75;20484732;28;99306;-81
2021/12/14 04:06:16;;;;;;;10.30;6.43;;;;;;;20.14;47.28;101292.09;20479865;28;98146;-81
2021/12/14 04:16:22;;;;;;;10.23;7.33;;;;;;;20.13;47.61;101306.16;20487331;28;98235;-80
2021/12/14 04:26:22;;;;;;;9.80;6.85;;;;;;;20.10;47.09;101294.97;20501045;28;98265;-81
2021/12/14 04:36:26;;;;;;;9.63;6.53;;;;;;;20.10;47.55;101301.09;20490538;28;101522;-81
2021/12/14 04:56:48;;;;;;;9.88;6.95;;;;;;;20.09;47.31;101309.91;20492544;28;98222;-81
2021/12/14 05:16:57;;;;;;;12.68;8.15;;;;;;;20.12;46.18;101314.97;20480652;28;101980;-80
2021/12/14 05:27:03;;;;;;;12.05;6.90;;;;;;;20.33;46.97;101321.72;20484116;28;100501;-79
2021/12/14 05:37:06;;;;;;;11.73;6.55;;;;;;;20.54;48.20;101332.75;20491736;28;99582;-75
2021/12/14 05:47:10;;;;;;;10.02;6.40;;;;;;;20.67;48.00;101343.41;20478998;28;98126;-74
2021/12/14 05:57:23;;;;;;;9.77;6.55;;;;;;;20.77;48.48;101349.81;20484552;28;97821;-75
2021/12/14 06:07:28;;;;;;;9.07;6.53;;;;;;;20.82;47.09;101349.53;20475718;28;98356;-77
2021/12/14 06:17:35;;;;;;;16.52;6.55;;;;;;;20.82;42.52;101353.00;20468749;28;99623;-78
2021/12/14 06:27:37;;;;;;;14.77;6.88;;;;;;;20.85;45.84;101368.63;20482076;28;99510;-79
2021/12/14 06:38:10;;;;;;;10.43;6.75;;;;;;;20.89;45.83;101364.03;20475420;28;101231;-79
2021/12/14 06:48:21;;;;;;;21.53;9.10;;;;;;;20.40;42.26;101354.63;20468632;28;101880;-78
2021/12/14 06:58:25;;;;;;;12.95;7.30;;;;;;;20.72;43.60;101362.41;20462719;28;98849;-78
2021/12/14 07:08:27;;;;;;;11.10;7.50;;;;;;;20.51;41.51;101375.00;20470612;28;97815;-81
2021/12/14 07:18:29;;;;;;;13.63;6.80;;;;;;;20.64;42.32;101366.31;20486901;28;98748;-77
2021/12/14 07:28:37;;;;;;;10.30;6.07;;;;;;;20.77;43.63;101376.13;20487248;28;100428;-76
2021/12/14 07:38:48;;;;;;;10.45;6.75;;;;;;;20.80;43.05;101397.03;20495802;28;98361;-76
2021/12/14 07:48:56;;;;;;;7.40;5.65;;;;;;;20.84;43.64;101389.78;20493224;28;100779;-76
2021/12/14 07:58:59;;;;;;;8.48;5.50;;;;;;;21.00;44.13;101385.28;20496401;28;100980;-76
2021/12/14 08:09:02;;;;;;;9.07;6.18;;;;;;;21.03;43.60;101382.47;20499018;28;102093;-76
2021/12/14 08:19:03;;;;;;;;;;;;;;;21.09;44.12;101394.41;20510950;28;98434;-76
2021/12/14 08:29:11;;;;;;;8.68;5.70;;;;;;;21.11;43.57;101387.25;20498674;28;97879;-75
2021/12/14 08:39:16;;;;;;;10.98;6.90;;;;;;;21.15;42.94;101387.91;20502796;28;101198;-75
2021/12/14 08:49:20;;;;;;;10.27;6.05;;;;;;;21.17;43.65;101394.78;20517731;28;101444;-75
2021/12/14 08:59:21;;;;;;;10.10;6.75;;;;;;;21.17;43.53;101392.16;20525099;28;101003;-75
2021/12/14 09:09:23;;;;;;;9.50;6.60;;;;;;;21.16;43.51;101387.81;20507902;28;97804;-75
2021/12/14 09:19:36;;;;;;;8.17;6.07;;;;;;;21.13;43.85;101368.72;20523184;28;98974;-75
2021/12/14 09:29:37;;;;;;;9.05;6.30;;;;;;;21.11;43.54;101374.94;20505777;28;100161;-74
2021/12/14 09:39:48;;;;;;;7.75;5.65;;;;;;;21.08;43.72;101383.03;20470111;28;100783;-75
2021/12/14 09:49:50;;;;;;;6.97;5.43;;;;;;;21.05;43.73;101375.31;20501197;28;98732;-75
2021/12/14 09:59:54;;;;;;;9.07;6.27;;;;;;;21.05;43.70;101358.66;20506027;28;98195;-75
2021/12/14 10:10:01;;;;;;;8.18;6.03;;;;;;;21.06;43.50;101347.19;20500202;28;99181;-74
2021/12/14 10:20:05;;;;;;;9.38;6.25;;;;;;;21.05;43.54;101346.34;20509385;28;101169;-76
2021/12/14 10:30:18;;;;;;;8.90;6.38;;;;;;;21.04;43.26;101328.00;20509403;28;97407;-75
2021/12/14 10:50:52;;;;;;;7.65;6.18;;;;;;;21.27;42.84;101347.66;20506206;28;97630;-74
2021/12/14 11:00:59;;;;;;;9.38;6.28;;;;;;;21.40;42.45;101331.94;20505452;28;97498;-75
2021/12/14 11:11:07;;;;;;;15.93;6.72;;;;;;;21.53;42.53;101322.28;20489382;28;97836;-76
2021/12/14 11:21:12;;;;;;;12.70;7.00;;;;;;;21.66;42.75;101318.91;20474721;28;98151;-72
2021/12/14 11:31:16;;;;;;;11.07;6.20;;;;;;;21.82;42.70;101316.94;20508707;28;98107;-75
2021/12/14 11:41:38;;;;;;;11.10;6.85;;;;;;;21.94;43.09;101314.47;20503133;28;98418;-72
2021/12/14 11:51:42;;;;;;;8.77;5.50;;;;;;;22.04;43.07;101303.16;20505259;28;97986;-71
2021/12/14 12:01:51;;;;;;;8.13;5.82;;;;;;;22.15;42.62;101302.47;20504071;28;99538;-73
2021/12/14 12:11:54;;;;;;;9.38;5.85;;;;;;;22.23;42.52;101299.31;20504478;28;103798;-74
2021/12/14 12:22:03;;;;;;;8.35;6.22;;;;;;;22.31;42.88;101310.19;20501146;28;101781;-72
2021/12/14 12:32:16;;;;;;;8.38;5.65;;;;;;;22.33;42.58;101305.66;20510085;28;99027;-72
2021/12/14 12:42:17;;;;;;;16.08;6.10;;;;;;;22.34;42.07;101290.69;20507161;28;98718;-73
2021/12/14 12:52:32;;;;;;;13.82;5.80;;;;;;;22.44;42.57;101301.50;20468107;28;97633;-72
2021/12/14 13:02:45;;;;;;;16.52;5.88;;;;;;;22.42;42.93;101287.53;20505133;28;98634;-73
2021/12/14 13:12:48;;;;;;;;;;;;;;;22.48;43.16;101273.94;20515179;28;98356;-77
2021/12/14 13:22:48;;;;;;;89.10;37.92;;;;;;;22.49;44.57;101281.72;20513129;28;98914;-77
2021/12/14 13:32:50;;;;;;;74.95;32.95;;;;;;;22.51;44.52;101276.38;20505496;28;97648;-72
2021/12/14 13:43:23;;;;;;;68.70;30.03;;;;;;;22.48;45.29;101295.03;20492913;28;100845;-73
2021/12/14 13:53:23;;;;;;;;;;;;;;;22.41;45.51;101297.28;20483946;28;97959;-70
2021/12/14 14:03:29;;;;;;;47.58;21.80;;;;;;;22.32;45.84;101290.75;20486536;28;97375;-72
2021/12/14 14:13:35;;;;;;;41.75;18.67;;;;;;;22.27;45.84;101287.59;20488551;28;100982;-74
2021/12/14 14:23:44;;;;;;;36.67;17.00;;;;;;;22.15;44.93;101286.63;20484990;28;100470;-74
2021/12/14 14:33:53;;;;;;;32.17;15.52;;;;;;;21.94;42.65;101281.00;20472285;28;98205;-73
2021/12/14 14:43:59;;;;;;;30.23;13.50;;;;;;;21.96;44.12;101297.59;20476774;28;99513;-69
2021/12/14 14:54:00;;;;;;;40.50;12.27;;;;;;;21.95;44.13;101316.13;20457573;28;103382;-71
2021/12/14 15:04:02;;;;;;;25.02;11.57;;;;;;;21.71;43.43;101316.78;20485786;28;99126;-70
2021/12/14 15:14:17;;;;;;;;;;;;;;;21.77;43.87;101321.66;20498141;28;97503;-70
2021/12/14 15:24:48;;;;;;;20.73;10.43;;;;;;;21.72;43.99;101331.69;20490511;28;102421;-72
2021/12/14 15:35:12;;;;;;;20.15;9.00;;;;;;;21.71;44.31;101328.19;20492894;28;97643;-71
2021/12/14 15:45:23;;;;;;;21.10;9.13;;;;;;;21.66;44.43;101340.81;20471336;28;98664;-71
2021/12/14 15:55:30;;;;;;;20.13;9.88;;;;;;;21.53;43.75;101332.84;20457122;28;99790;-70
2021/12/14 16:05:31;;;;;;;20.77;10.95;;;;;;;21.41;43.40;101321.28;20481192;28;99271;-71
2021/12/14 16:15:34;;;;;;;20.98;9.95;;;;;;;21.47;43.48;101329.72;20491274;28;100866;-70
2021/12/14 16:25:42;;;;;;;15.70;9.32;;;;;;;21.46;43.85;101330.66;20499940;28;98995;-72
2021/12/14 16:35:53;;;;;;;14.55;8.90;;;;;;;21.44;43.81;101339.50;20486460;28;100806;-72
2021/12/14 16:45:55;;;;;;;18.02;9.45;;;;;;;21.41;43.70;101330.94;20499399;28;101529;-71
2021/12/14 16:55:58;;;;;;;15.43;9.03;;;;;;;21.37;44.42;101335.59;20481808;28;102726;-70
2021/12/14 17:06:06;;;;;;;18.20;9.33;;;;;;;21.33;43.23;101342.00;20472668;28;99489;-70
2021/12/14 17:16:09;;;;;;;16.58;8.55;;;;;;;21.31;43.70;101346.50;20484493;28;101101;-70
2021/12/14 17:26:18;;;;;;;18.80;8.70;;;;;;;21.33;44.87;101359.59;20477373;28;98569;-70
2021/12/14 17:36:24;;;;;;;16.25;7.93;;;;;;;21.32;44.38;101356.09;20493162;28;99156;-71
2021/12/14 17:46:24;;;;;;;19.45;11.30;;;;;;;21.09;44.41;101370.69;20500530;28;99289;-70
2021/12/14 17:56:26;;;;;;;22.60;10.23;;;;;;;21.14;43.63;101373.06;20475531;28;98196;-70
2021/12/14 18:06:29;;;;;;;20.30;10.57;;;;;;;21.17;44.64;101367.63;20442489;28;101646;-68
2021/12/14 18:16:39;;;;;;;16.15;8.82;;;;;;;21.17;44.88;101393.94;20481025;28;99522;-70
2021/12/14 18:26:44;;;;;;;15.55;8.23;;;;;;;21.24;45.26;101395.28;20476520;28;97781;-68
2021/12/14 18:37:07;;;;;;;16.30;8.27;;;;;;;21.32;45.45;101403.50;20475964;28;106268;-68
2021/12/14 18:47:16;;;;;;;;;;;;;;;21.42;45.48;101409.94;20450229;28;100797;-70
2021/12/14 18:57:17;;;;;;;22.80;9.82;;;;;;;21.42;45.36;101416.97;20461275;28;102177;-67
2021/12/14 19:07:47;;;;;;;15.90;9.27;;;;;;;21.34;45.57;101432.44;20465754;28;101585;-68
2021/12/14 19:17:50;;;;;;;19.65;10.05;;;;;;;21.24;46.48;101427.72;20490346;28;101825;-69
2021/12/14 19:27:56;;;;;;;20.42;9.52;;;;;;;21.27;45.94;101402.97;20469485;28;97681;-68
2021/12/14 19:38:07;;;;;;;20.30;10.07;;;;;;;21.16;46.65;101400.16;20448309;28;101103;-68
2021/12/14 19:48:16;;;;;;;24.67;12.63;;;;;;;21.09;45.55;101410.19;20490832;28;100447;-68
2021/12/14 19:58:22;;;;;;;19.92;11.95;;;;;;;21.00;46.18;101393.19;20502046;28;98856;-68
2021/12/14 20:08:28;;;;;;;23.50;12.30;;;;;;;21.02;46.13;101393.06;20515990;28;98863;-68
2021/12/14 20:18:35;;;;;;;20.58;11.52;;;;;;;21.04;46.42;101412.28;20501175;28;101851;-67
2021/12/14 20:28:41;;;;;;;19.58;12.02;;;;;;;21.03;46.72;101450.94;20490408;28;100249;-69
2021/12/14 20:38:45;;;;;;;21.48;11.13;;;;;;;20.98;46.31;101455.59;20491153;28;101123;-68
2021/12/14 20:48:50;;;;;;;17.98;11.25;;;;;;;20.91;46.48;101463.03;20492877;28;98645;-69
2021/12/14 20:59:03;;;;;;;20.42;11.32;;;;;;;20.86;46.36;101475.63;20485099;28;102298;-68
2021/12/14 21:09:13;;;;;;;16.38;10.77;;;;;;;20.85;46.37;101457.28;20479711;28;99014;-67
2021/12/14 21:19:25;;;;;;;21.25;11.45;;;;;;;20.81;46.18;101472.41;20460887;28;101229;-67
2021/12/14 21:29:45;;;;;;;17.00;11.65;;;;;;;20.82;46.57;101481.16;20468250;28;97742;-67
2021/12/14 21:39:50;;;;;;;15.57;9.93;;;;;;;20.77;46.33;101478.78;20486286;28;99165;-68
2021/12/14 21:49:57;;;;;;;15.27;10.60;;;;;;;20.72;46.87;101484.31;20475390;28;101212;-68
2021/12/14 22:00:05;;;;;;;15.65;9.70;;;;;;;20.65;46.84;101490.84;20477632;28;102665;-68
2021/12/14 22:10:10;;;;;;;15.38;10.57;;;;;;;20.63;47.23;101498.00;20477497;28;98935;-69
2021/12/14 22:20:14;;;;;;;16.38;10.20;;;;;;;20.58;47.11;101502.66;20474887;28;101616;-68
2021/12/14 22:30:16;;;;;;;15.07;10.15;;;;;;;20.54;46.77;101503.78;20478074;28;101655;-68
2021/12/14 22:40:33;;;;;;;14.60;9.57;;;;;;;20.53;47.01;101499.44;20476075;28;99210;-69
2021/12/14 22:50:37;;;;;;;15.45;9.95;;;;;;;20.50;47.04;101511.00;20472975;28;99436;-68
2021/12/14 23:00:49;;;;;;;14.35;9.60;;;;;;;20.41;46.52;101504.47;20468828;28;102938;-68
2021/12/14 23:10:50;;;;;;;15.17;10.07;;;;;;;20.36;46.58;101511.78;20476568;28;97675;-68
2021/12/14 23:20:53;;;;;;;13.25;9.35;;;;;;;20.33;46.49;101511.94;20466594;28;98925;-68
2021/12/14 23:30:57;;;;;;;14.05;9.48;;;;;;;20.30;46.67;101506.88;20470567;28;98182;-68
2021/12/14 23:40:58;;;;;;;13.20;9.73;;;;;;;20.27;46.62;101493.88;20460448;28;98786;-68
2021/12/14 23:50:58;;;;;;;12.98;9.25;;;;;;;20.24;46.82;101487.00;20465428;28;98850;-68
